sensor_id;sensor_type;location;lat;lon;timestamp;P1;durP1;ratioP1;P2;durP2;ratioP2
62479;SDS011;48526;48.846;2.322;2023-10-19T05:00:48;4.50;;;2.25;;
62479;SDS011;48526;48.846;2.322;2023-10-19T05:03:13;2.50;;;2.50;;
62479;SDS011;48526;48.846;2.322;2023-10-19T05:05:43;1.75;;;1.75;;
62479;SDS011;48526;48.846;2.322;2023-10-19T05:08:08;5.25;;;2.50;;
62479;SDS011;48526;48.846;2.322;2023-10-19T05:10:34;4.33;;;4.00;;
62479;SDS011;48526;48.846;2.322;2023-10-19T05:12:59;4.33;;;3.00;;
62479;SDS011;48526;48.846;2.322;2023-10-19T05:15:24;2.00;;;2.00;;
62479;SDS011;48526;48.846;2.322;2023-10-19T05:17:49;2.33;;;2.00;;
62479;SDS011;48526;48.846;2.322;2023-10-19T05:20:15;6.33;;;2.33;;
62479;SDS011;48526;48.846;2.322;2023-10-19T05:22:40;4.25;;;2.50;;
62479;SDS011;48526;48.846;2.322;2023-10-19T05:25:05;4.25;;;4.25;;
62479;SDS011;48526;48.846;2.322;2023-10-19T05:27:32;2.00;;;1.50;;
62479;SDS011;48526;48.846;2.322;2023-10-19T05:29:58;4.00;;;3.00;;
62479;SDS011;48526;48.846;2.322;2023-10-19T05:32:23;3.00;;;2.00;;
62479;SDS011;48526;48.846;2.322;2023-10-19T05:34:49;6.25;;;3.75;;
62479;SDS011;48526;48.846;2.322;2023-10-19T05:37:15;3.00;;;2.00;;
62479;SDS011;48526;48.846;2.322;2023-10-19T05:39:42;2.00;;;2.00;;
62479;SDS011;48526;48.846;2.322;2023-10-19T05:42:09;2.50;;;2.00;;
62479;SDS011;48526;48.846;2.322;2023-10-19T05:44:34;4.75;;;3.00;;
62479;SDS011;48526;48.846;2.322;2023-10-19T05:46:59;4.00;;;2.67;;
62479;SDS011;48526;48.846;2.322;2023-10-19T05:49:25;2.00;;;2.00;;
62479;SDS011;48526;48.846;2.322;2023-10-19T05:51:51;5.00;;;1.00;;
62479;SDS011;48526;48.846;2.322;2023-10-19T05:54:17;4.00;;;3.25;;
62479;SDS011;48526;48.846;2.322;2023-10-19T05:56:42;1.75;;;1.75;;
62479;SDS011;48526;48.846;2.322;2023-10-19T05:59:08;6.00;;;4.00;;
62479;SDS011;48526;48.846;2.322;2023-10-19T06:01:35;2.50;;;2.25;;
62479;SDS011;48526;48.846;2.322;2023-10-19T06:04:00;3.00;;;2.25;;
62479;SDS011;48526;48.846;2.322;2023-10-19T06:06:26;3.75;;;2.75;;
62479;SDS011;48526;48.846;2.322;2023-10-19T06:08:51;4.75;;;3.00;;
62479;SDS011;48526;48.846;2.322;2023-10-19T06:11:18;2.25;;;2.00;;
62479;SDS011;48526;48.846;2.322;2023-10-19T06:13:43;3.00;;;3.00;;
62479;SDS011;48526;48.846;2.322;2023-10-19T06:16:09;3.00;;;2.33;;
62479;SDS011;48526;48.846;2.322;2023-10-19T06:18:34;2.33;;;2.00;;
62479;SDS011;48526;48.846;2.322;2023-10-19T06:20:59;3.00;;;2.00;;
62479;SDS011;48526;48.846;2.322;2023-10-19T06:23:24;5.67;;;2.00;;
62479;SDS011;48526;48.846;2.322;2023-10-19T06:25:49;3.00;;;3.00;;
62479;SDS011;48526;48.846;2.322;2023-10-19T06:28:16;4.50;;;2.25;;
62479;SDS011;48526;48.846;2.322;2023-10-19T06:30:41;4.00;;;2.25;;
62479;SDS011;48526;48.846;2.322;2023-10-19T06:33:07;3.25;;;2.00;;
62479;SDS011;48526;48.846;2.322;2023-10-19T06:35:33;4.00;;;3.00;;
62479;SDS011;48526;48.846;2.322;2023-10-19T06:37:59;3.00;;;3.00;;
62479;SDS011;48526;48.846;2.322;2023-10-19T06:40:24;4.25;;;3.00;;
62479;SDS011;48526;48.846;2.322;2023-10-19T06:42:51;4.00;;;3.00;;
62479;SDS011;48526;48.846;2.322;2023-10-19T06:45:17;3.00;;;3.00;;
62479;SDS011;48526;48.846;2.322;2023-10-19T06:47:44;2.50;;;1.00;;
62479;SDS011;48526;48.846;2.322;2023-10-19T06:50:10;3.75;;;3.75;;
62479;SDS011;48526;48.846;2.322;2023-10-19T06:52:37;4.00;;;4.00;;
62479;SDS011;48526;48.846;2.322;2023-10-19T06:55:05;2.00;;;2.00;;
62479;SDS011;48526;48.846;2.322;2023-10-19T06:57:32;3.00;;;3.00;;
62479;SDS011;48526;48.846;2.322;2023-10-19T06:59:58;3.00;;;3.00;;
62479;SDS011;48526;48.846;2.322;2023-10-19T07:02:24;3.75;;;3.25;;
62479;SDS011;48526;48.846;2.322;2023-10-19T07:04:49;4.67;;;3.33;;
62479;SDS011;48526;48.846;2.322;2023-10-19T07:07:14;3.67;;;2.33;;
62479;SDS011;48526;48.846;2.322;2023-10-19T07:09:39;3.00;;;3.00;;
62479;SDS011;48526;48.846;2.322;2023-10-19T07:12:06;4.25;;;4.25;;
62479;SDS011;48526;48.846;2.322;2023-10-19T07:14:33;4.00;;;2.25;;
62479;SDS011;48526;48.846;2.322;2023-10-19T07:16:58;3.00;;;3.00;;
62479;SDS011;48526;48.846;2.322;2023-10-19T07:19:24;3.75;;;3.50;;
62479;SDS011;48526;48.846;2.322;2023-10-19T07:21:49;3.75;;;2.75;;
62479;SDS011;48526;48.846;2.322;2023-10-19T07:24:22;4.00;;;4.00;;
62479;SDS011;48526;48.846;2.322;2023-10-19T07:26:48;4.00;;;3.00;;
62479;SDS011;48526;48.846;2.322;2023-10-19T07:29:29;8.00;;;3.00;;
62479;SDS011;48526;48.846;2.322;2023-10-19T07:31:55;4.50;;;4.50;;
62479;SDS011;48526;48.846;2.322;2023-10-19T07:34:20;6.67;;;4.00;;
62479;SDS011;48526;48.846;2.322;2023-10-19T07:36:50;3.75;;;3.00;;
62479;SDS011;48526;48.846;2.322;2023-10-19T07:39:16;3.75;;;3.25;;
62479;SDS011;48526;48.846;2.322;2023-10-19T07:41:44;6.00;;;3.50;;
62479;SDS011;48526;48.846;2.322;2023-10-19T07:44:09;6.00;;;4.75;;
62479;SDS011;48526;48.846;2.322;2023-10-19T07:46:34;7.00;;;6.33;;
62479;SDS011;48526;48.846;2.322;2023-10-19T07:48:59;6.67;;;4.33;;
62479;SDS011;48526;48.846;2.322;2023-10-19T07:51:26;3.50;;;3.50;;
62479;SDS011;48526;48.846;2.322;2023-10-19T07:53:51;3.00;;;3.00;;
62479;SDS011;48526;48.846;2.322;2023-10-19T07:56:16;3.25;;;3.25;;
62479;SDS011;48526;48.846;2.322;2023-10-19T07:58:42;3.25;;;2.75;;
62479;SDS011;48526;48.846;2.322;2023-10-19T08:01:07;2.00;;;2.00;;
62479;SDS011;48526;48.846;2.322;2023-10-19T08:03:32;4.00;;;3.00;;
62479;SDS011;48526;48.846;2.322;2023-10-19T08:05:57;6.33;;;2.00;;
62479;SDS011;48526;48.846;2.322;2023-10-19T08:08:23;2.67;;;2.67;;
62479;SDS011;48526;48.846;2.322;2023-10-19T08:10:49;2.50;;;1.75;;
62479;SDS011;48526;48.846;2.322;2023-10-19T08:13:15;2.00;;;2.00;;
62479;SDS011;48526;48.846;2.322;2023-10-19T08:15:40;4.00;;;2.50;;
62479;SDS011;48526;48.846;2.322;2023-10-19T08:18:05;4.00;;;4.00;;
62479;SDS011;48526;48.846;2.322;2023-10-19T08:20:31;2.00;;;2.00;;
62479;SDS011;48526;48.846;2.322;2023-10-19T08:22:56;4.33;;;3.33;;
62479;SDS011;48526;48.846;2.322;2023-10-19T08:25:22;3.75;;;3.75;;
62479;SDS011;48526;48.846;2.322;2023-10-19T08:27:48;5.00;;;4.50;;
62479;SDS011;48526;48.846;2.322;2023-10-19T08:30:15;3.25;;;2.75;;
62479;SDS011;48526;48.846;2.322;2023-10-19T08:32:43;5.50;;;2.75;;
62479;SDS011;48526;48.846;2.322;2023-10-19T08:35:08;3.00;;;3.00;;
62479;SDS011;48526;48.846;2.322;2023-10-19T08:37:37;2.50;;;2.50;;
62479;SDS011;48526;48.846;2.322;2023-10-19T08:40:02;3.75;;;2.50;;
62479;SDS011;48526;48.846;2.322;2023-10-19T08:42:29;3.00;;;3.00;;
62479;SDS011;48526;48.846;2.322;2023-10-19T08:44:55;3.25;;;2.00;;
62479;SDS011;48526;48.846;2.322;2023-10-19T08:47:20;2.75;;;1.00;;
62479;SDS011;48526;48.846;2.322;2023-10-19T08:49:46;3.75;;;2.50;;
62479;SDS011;48526;48.846;2.322;2023-10-19T08:52:11;2.00;;;2.00;;
62479;SDS011;48526;48.846;2.322;2023-10-19T08:54:37;1.25;;;1.00;;
62479;SDS011;48526;48.846;2.322;2023-10-19T08:57:02;1.00;;;1.00;;
62479;SDS011;48526;48.846;2.322;2023-10-19T08:59:27;4.67;;;2.67;;
62479;SDS011;48526;48.846;2.322;2023-10-19T09:02:00;2.50;;;2.00;;
62479;SDS011;48526;48.846;2.322;2023-10-19T09:04:25;1.00;;;1.00;;
62479;SDS011;48526;48.846;2.322;2023-10-19T09:06:52;1.00;;;1.00;;
62479;SDS011;48526;48.846;2.322;2023-10-19T09:09:18;2.00;;;2.00;;
62479;SDS011;48526;48.846;2.322;2023-10-19T09:11:49;4.50;;;1.25;;
62479;SDS011;48526;48.846;2.322;2023-10-19T09:14:14;2.00;;;1.25;;
62479;SDS011;48526;48.846;2.322;2023-10-19T09:16:55;2.25;;;1.75;;
62479;SDS011;48526;48.846;2.322;2023-10-19T09:19:34;5.00;;;3.00;;
62479;SDS011;48526;48.846;2.322;2023-10-19T09:22:01;2.00;;;2.00;;
62479;SDS011;48526;48.846;2.322;2023-10-19T09:24:32;1.25;;;1.25;;
62479;SDS011;48526;48.846;2.322;2023-10-19T09:26:58;3.00;;;2.00;;
62479;SDS011;48526;48.846;2.322;2023-10-19T09:29:23;2.00;;;1.75;;
62479;SDS011;48526;48.846;2.322;2023-10-19T09:31:48;2.00;;;2.00;;
62479;SDS011;48526;48.846;2.322;2023-10-19T09:34:14;3.00;;;3.00;;
62479;SDS011;48526;48.846;2.322;2023-10-19T09:36:42;2.25;;;2.25;;
62479;SDS011;48526;48.846;2.322;2023-10-19T09:39:08;3.00;;;2.00;;
62479;SDS011;48526;48.846;2.322;2023-10-19T09:41:37;3.75;;;2.00;;
62479;SDS011;48526;48.846;2.322;2023-10-19T09:44:04;4.50;;;3.00;;
62479;SDS011;48526;48.846;2.322;2023-10-19T09:46:32;2.00;;;2.00;;
62479;SDS011;48526;48.846;2.322;2023-10-19T09:49:01;2.50;;;1.75;;
62479;SDS011;48526;48.846;2.322;2023-10-19T09:51:27;2.00;;;1.67;;
62479;SDS011;48526;48.846;2.322;2023-10-19T09:56:38;3.00;;;3.00;;
62479;SDS011;48526;48.846;2.322;2023-10-19T09:59:06;2.00;;;2.00;;
62479;SDS011;48526;48.846;2.322;2023-10-19T10:04:32;2.50;;;2.50;;
62479;SDS011;48526;48.846;2.322;2023-10-19T10:06:58;2.00;;;2.00;;
62479;SDS011;48526;48.846;2.322;2023-10-19T10:09:29;2.00;;;2.00;;
62479;SDS011;48526;48.846;2.322;2023-10-19T10:11:54;3.25;;;2.50;;
62479;SDS011;48526;48.846;2.322;2023-10-19T10:14:23;4.00;;;3.67;;
62479;SDS011;48526;48.846;2.322;2023-10-19T10:19:26;2.00;;;2.00;;
62479;SDS011;48526;48.846;2.322;2023-10-19T10:22:04;2.00;;;2.00;;
62479;SDS011;48526;48.846;2.322;2023-10-19T10:24:39;2.75;;;2.00;;
62479;SDS011;48526;48.846;2.322;2023-10-19T10:27:04;4.50;;;3.00;;
62479;SDS011;48526;48.846;2.322;2023-10-19T10:29:29;5.00;;;4.00;;
62479;SDS011;48526;48.846;2.322;2023-10-19T10:31:56;2.00;;;2.00;;
62479;SDS011;48526;48.846;2.322;2023-10-19T10:37:07;2.00;;;2.00;;
62479;SDS011;48526;48.846;2.322;2023-10-19T10:39:33;5.00;;;3.00;;
62479;SDS011;48526;48.846;2.322;2023-10-19T10:42:01;3.25;;;3.00;;
62479;SDS011;48526;48.846;2.322;2023-10-19T10:44:37;2.25;;;2.25;;
62479;SDS011;48526;48.846;2.322;2023-10-19T10:47:06;3.25;;;3.25;;
62479;SDS011;48526;48.846;2.322;2023-10-19T10:49:35;2.75;;;2.75;;
62479;SDS011;48526;48.846;2.322;2023-10-19T10:52:00;3.00;;;3.00;;
62479;SDS011;48526;48.846;2.322;2023-10-19T10:54:25;3.00;;;3.00;;
62479;SDS011;48526;48.846;2.322;2023-10-19T10:56:50;3.00;;;3.00;;
62479;SDS011;48526;48.846;2.322;2023-10-19T10:59:16;3.33;;;2.33;;
62479;SDS011;48526;48.846;2.322;2023-10-19T11:01:41;2.00;;;1.00;;
62479;SDS011;48526;48.846;2.322;2023-10-19T11:04:11;5.50;;;4.00;;
62479;SDS011;48526;48.846;2.322;2023-10-19T11:06:49;5.00;;;3.75;;
62479;SDS011;48526;48.846;2.322;2023-10-19T11:09:15;3.50;;;2.75;;
62479;SDS011;48526;48.846;2.322;2023-10-19T11:11:47;4.50;;;3.00;;
62479;SDS011;48526;48.846;2.322;2023-10-19T11:14:14;3.00;;;2.00;;
62479;SDS011;48526;48.846;2.322;2023-10-19T11:16:39;2.75;;;2.75;;
62479;SDS011;48526;48.846;2.322;2023-10-19T11:19:05;4.50;;;2.75;;
62479;SDS011;48526;48.846;2.322;2023-10-19T11:21:30;4.25;;;2.50;;
62479;SDS011;48526;48.846;2.322;2023-10-19T11:23:55;6.00;;;3.00;;
62479;SDS011;48526;48.846;2.322;2023-10-19T11:26:22;2.00;;;2.00;;
62479;SDS011;48526;48.846;2.322;2023-10-19T11:29:02;4.00;;;3.00;;
62479;SDS011;48526;48.846;2.322;2023-10-19T11:31:29;4.50;;;3.00;;
62479;SDS011;48526;48.846;2.322;2023-10-19T11:34:02;6.25;;;1.75;;
62479;SDS011;48526;48.846;2.322;2023-10-19T11:36:28;1.25;;;1.25;;
62479;SDS011;48526;48.846;2.322;2023-10-19T11:38:53;2.33;;;1.67;;
62479;SDS011;48526;48.846;2.322;2023-10-19T11:41:19;1.67;;;1.67;;
62479;SDS011;48526;48.846;2.322;2023-10-19T11:43:45;3.50;;;3.50;;
62479;SDS011;48526;48.846;2.322;2023-10-19T11:46:10;2.50;;;1.75;;
62479;SDS011;48526;48.846;2.322;2023-10-19T11:48:40;4.75;;;3.50;;
62479;SDS011;48526;48.846;2.322;2023-10-19T11:51:07;4.75;;;3.00;;
62479;SDS011;48526;48.846;2.322;2023-10-19T11:53:35;3.75;;;2.75;;
62479;SDS011;48526;48.846;2.322;2023-10-19T11:56:02;2.00;;;1.75;;
62479;SDS011;48526;48.846;2.322;2023-10-19T11:58:28;1.25;;;1.25;;
62479;SDS011;48526;48.846;2.322;2023-10-19T12:00:54;2.33;;;2.33;;
62479;SDS011;48526;48.846;2.322;2023-10-19T12:03:20;1.75;;;1.75;;
62479;SDS011;48526;48.846;2.322;2023-10-19T12:05:45;2.00;;;2.00;;
62479;SDS011;48526;48.846;2.322;2023-10-19T12:08:10;3.50;;;2.00;;
62479;SDS011;48526;48.846;2.322;2023-10-19T12:10:35;2.00;;;2.00;;
62479;SDS011;48526;48.846;2.322;2023-10-19T12:13:02;5.00;;;3.00;;
62479;SDS011;48526;48.846;2.322;2023-10-19T12:15:27;2.50;;;2.50;;
62479;SDS011;48526;48.846;2.322;2023-10-19T12:17:52;4.00;;;1.67;;
62479;SDS011;48526;48.846;2.322;2023-10-19T12:20:19;0.50;;;0.50;;
62479;SDS011;48526;48.846;2.322;2023-10-19T12:22:46;2.50;;;2.50;;
62479;SDS011;48526;48.846;2.322;2023-10-19T12:25:12;3.00;;;1.00;;
62479;SDS011;48526;48.846;2.322;2023-10-19T12:27:38;2.25;;;2.25;;
62479;SDS011;48526;48.846;2.322;2023-10-19T12:30:03;2.00;;;2.00;;
62479;SDS011;48526;48.846;2.322;2023-10-19T12:32:41;1.75;;;1.00;;
62479;SDS011;48526;48.846;2.322;2023-10-19T12:35:07;2.00;;;1.00;;
62479;SDS011;48526;48.846;2.322;2023-10-19T12:37:36;1.50;;;1.50;;
62479;SDS011;48526;48.846;2.322;2023-10-19T12:40:06;6.75;;;5.75;;
62479;SDS011;48526;48.846;2.322;2023-10-19T12:42:51;1.00;;;1.00;;
62479;SDS011;48526;48.846;2.322;2023-10-19T12:45:17;1.00;;;1.00;;
62479;SDS011;48526;48.846;2.322;2023-10-19T12:47:44;1.25;;;1.25;;
62479;SDS011;48526;48.846;2.322;2023-10-19T12:50:09;3.00;;;2.00;;
62479;SDS011;48526;48.846;2.322;2023-10-19T12:52:35;1.00;;;1.00;;
62479;SDS011;48526;48.846;2.322;2023-10-19T12:55:02;1.75;;;0.00;;
62479;SDS011;48526;48.846;2.322;2023-10-19T12:57:29;3.00;;;1.00;;
62479;SDS011;48526;48.846;2.322;2023-10-19T12:59:54;1.00;;;1.00;;
62479;SDS011;48526;48.846;2.322;2023-10-19T13:02:19;1.67;;;1.00;;
62479;SDS011;48526;48.846;2.322;2023-10-19T13:04:45;2.00;;;1.25;;
62479;SDS011;48526;48.846;2.322;2023-10-19T13:07:11;1.00;;;1.00;;
62479;SDS011;48526;48.846;2.322;2023-10-19T13:09:37;1.00;;;1.00;;
62479;SDS011;48526;48.846;2.322;2023-10-19T13:12:03;1.67;;;1.00;;
62479;SDS011;48526;48.846;2.322;2023-10-19T13:14:32;2.00;;;1.00;;
62479;SDS011;48526;48.846;2.322;2023-10-19T13:16:59;1.75;;;1.75;;
62479;SDS011;48526;48.846;2.322;2023-10-19T13:19:24;2.00;;;2.00;;
62479;SDS011;48526;48.846;2.322;2023-10-19T13:21:50;3.25;;;3.00;;
62479;SDS011;48526;48.846;2.322;2023-10-19T13:24:16;1.75;;;1.00;;
62479;SDS011;48526;48.846;2.322;2023-10-19T13:26:42;2.25;;;2.25;;
62479;SDS011;48526;48.846;2.322;2023-10-19T13:29:11;1.00;;;1.00;;
62479;SDS011;48526;48.846;2.322;2023-10-19T13:31:37;3.00;;;2.00;;
62479;SDS011;48526;48.846;2.322;2023-10-19T13:34:02;2.50;;;2.50;;
62479;SDS011;48526;48.846;2.322;2023-10-19T13:36:29;1.00;;;1.00;;
62479;SDS011;48526;48.846;2.322;2023-10-19T13:38:55;3.50;;;3.50;;
62479;SDS011;48526;48.846;2.322;2023-10-19T13:41:20;2.33;;;2.33;;
62479;SDS011;48526;48.846;2.322;2023-10-19T13:43:45;1.25;;;1.25;;
62479;SDS011;48526;48.846;2.322;2023-10-19T13:46:12;2.00;;;2.00;;
62479;SDS011;48526;48.846;2.322;2023-10-19T13:48:37;1.00;;;1.00;;
62479;SDS011;48526;48.846;2.322;2023-10-19T13:51:04;2.50;;;2.50;;
62479;SDS011;48526;48.846;2.322;2023-10-19T13:53:40;1.25;;;1.25;;
62479;SDS011;48526;48.846;2.322;2023-10-19T13:56:08;0.50;;;0.50;;
62479;SDS011;48526;48.846;2.322;2023-10-19T13:58:34;1.00;;;1.00;;
62479;SDS011;48526;48.846;2.322;2023-10-19T14:01:00;2.00;;;1.00;;
62479;SDS011;48526;48.846;2.322;2023-10-19T14:03:25;1.25;;;1.25;;
62479;SDS011;48526;48.846;2.322;2023-10-19T14:05:50;2.00;;;1.00;;
62479;SDS011;48526;48.846;2.322;2023-10-19T14:08:16;1.75;;;1.00;;
62479;SDS011;48526;48.846;2.322;2023-10-19T14:10:41;2.00;;;1.00;;
62479;SDS011;48526;48.846;2.322;2023-10-19T14:13:10;1.00;;;1.00;;
62479;SDS011;48526;48.846;2.322;2023-10-19T14:15:39;1.50;;;1.50;;
62479;SDS011;48526;48.846;2.322;2023-10-19T14:18:05;3.25;;;3.25;;
62479;SDS011;48526;48.846;2.322;2023-10-19T14:20:30;3.25;;;2.25;;
62479;SDS011;48526;48.846;2.322;2023-10-19T14:22:56;2.25;;;1.00;;
62479;SDS011;48526;48.846;2.322;2023-10-19T14:25:21;2.00;;;2.00;;
62479;SDS011;48526;48.846;2.322;2023-10-19T14:27:48;2.00;;;2.00;;
62479;SDS011;48526;48.846;2.322;2023-10-19T14:30:17;1.75;;;1.00;;
62479;SDS011;48526;48.846;2.322;2023-10-19T14:32:47;1.25;;;1.25;;
62479;SDS011;48526;48.846;2.322;2023-10-19T14:35:12;3.25;;;1.25;;
62479;SDS011;48526;48.846;2.322;2023-10-19T14:37:39;1.00;;;1.00;;
62479;SDS011;48526;48.846;2.322;2023-10-19T14:40:08;2.50;;;1.00;;
62479;SDS011;48526;48.846;2.322;2023-10-19T14:42:34;2.75;;;2.00;;
62479;SDS011;48526;48.846;2.322;2023-10-19T14:45:00;5.75;;;3.75;;
62479;SDS011;48526;48.846;2.322;2023-10-19T14:47:25;5.33;;;2.33;;
62479;SDS011;48526;48.846;2.322;2023-10-19T14:49:51;2.00;;;2.00;;
62479;SDS011;48526;48.846;2.322;2023-10-19T14:52:17;6.00;;;6.00;;
62479;SDS011;48526;48.846;2.322;2023-10-19T14:54:42;3.00;;;3.00;;
62479;SDS011;48526;48.846;2.322;2023-10-19T14:57:08;1.25;;;1.25;;
62479;SDS011;48526;48.846;2.322;2023-10-19T14:59:33;6.00;;;5.00;;
62479;SDS011;48526;48.846;2.322;2023-10-19T15:02:00;2.00;;;1.00;;
62479;SDS011;48526;48.846;2.322;2023-10-19T15:04:26;3.67;;;3.67;;
62479;SDS011;48526;48.846;2.322;2023-10-19T15:06:52;5.00;;;5.00;;
62479;SDS011;48526;48.846;2.322;2023-10-19T15:09:17;4.00;;;2.67;;
62479;SDS011;48526;48.846;2.322;2023-10-19T15:11:45;6.50;;;5.75;;
62479;SDS011;48526;48.846;2.322;2023-10-19T15:14:11;6.00;;;2.00;;
62479;SDS011;48526;48.846;2.322;2023-10-19T15:16:36;3.75;;;2.50;;
62479;SDS011;48526;48.846;2.322;2023-10-19T15:19:04;3.00;;;2.00;;
62479;SDS011;48526;48.846;2.322;2023-10-19T15:21:30;2.25;;;2.00;;
62479;SDS011;48526;48.846;2.322;2023-10-19T15:23:55;4.33;;;2.33;;
62479;SDS011;48526;48.846;2.322;2023-10-19T15:26:20;4.33;;;4.00;;
62479;SDS011;48526;48.846;2.322;2023-10-19T15:28:45;5.00;;;4.00;;
62479;SDS011;48526;48.846;2.322;2023-10-19T15:31:10;5.00;;;3.25;;
62479;SDS011;48526;48.846;2.322;2023-10-19T15:33:36;8.00;;;8.00;;
62479;SDS011;48526;48.846;2.322;2023-10-19T15:36:01;3.67;;;3.00;;
62479;SDS011;48526;48.846;2.322;2023-10-19T15:38:26;3.00;;;2.25;;
62479;SDS011;48526;48.846;2.322;2023-10-19T15:40:51;2.33;;;2.33;;
62479;SDS011;48526;48.846;2.322;2023-10-19T15:43:17;4.00;;;1.67;;
62479;SDS011;48526;48.846;2.322;2023-10-19T15:45:42;5.00;;;4.00;;
62479;SDS011;48526;48.846;2.322;2023-10-19T15:48:09;2.25;;;2.00;;
62479;SDS011;48526;48.846;2.322;2023-10-19T15:50:38;0.00;;;0.00;;
62479;SDS011;48526;48.846;2.322;2023-10-19T15:53:03;4.75;;;3.75;;
62479;SDS011;48526;48.846;2.322;2023-10-19T15:55:29;1.50;;;1.50;;
62479;SDS011;48526;48.846;2.322;2023-10-19T15:57:55;2.75;;;2.25;;
62479;SDS011;48526;48.846;2.322;2023-10-19T16:00:21;2.25;;;2.00;;
62479;SDS011;48526;48.846;2.322;2023-10-19T16:02:46;2.75;;;1.25;;
62479;SDS011;48526;48.846;2.322;2023-10-19T16:05:11;3.33;;;2.00;;
62479;SDS011;48526;48.846;2.322;2023-10-19T16:07:37;2.67;;;1.67;;
62479;SDS011;48526;48.846;2.322;2023-10-19T16:10:05;2.50;;;2.50;;
62479;SDS011;48526;48.846;2.322;2023-10-19T16:12:30;2.75;;;2.75;;
62479;SDS011;48526;48.846;2.322;2023-10-19T16:14:56;1.75;;;1.75;;
62479;SDS011;48526;48.846;2.322;2023-10-19T16:17:21;2.33;;;2.33;;
62479;SDS011;48526;48.846;2.322;2023-10-19T16:19:46;2.00;;;2.00;;
62479;SDS011;48526;48.846;2.322;2023-10-19T16:22:12;6.25;;;5.75;;
62479;SDS011;48526;48.846;2.322;2023-10-19T16:24:37;6.25;;;4.25;;
62479;SDS011;48526;48.846;2.322;2023-10-19T16:27:02;5.00;;;5.00;;
62479;SDS011;48526;48.846;2.322;2023-10-19T16:29:27;4.33;;;4.33;;
62479;SDS011;48526;48.846;2.322;2023-10-19T16:31:53;5.33;;;5.33;;
62479;SDS011;48526;48.846;2.322;2023-10-19T16:34:20;4.00;;;4.00;;
62479;SDS011;48526;48.846;2.322;2023-10-19T16:36:45;3.25;;;3.25;;
62479;SDS011;48526;48.846;2.322;2023-10-19T16:39:10;2.00;;;2.00;;
62479;SDS011;48526;48.846;2.322;2023-10-19T16:41:41;3.00;;;3.00;;
62479;SDS011;48526;48.846;2.322;2023-10-19T16:44:06;3.75;;;3.00;;
62479;SDS011;48526;48.846;2.322;2023-10-19T16:46:32;2.00;;;2.00;;
62479;SDS011;48526;48.846;2.322;2023-10-19T16:48:57;1.75;;;1.50;;
62479;SDS011;48526;48.846;2.322;2023-10-19T16:51:23;3.00;;;3.00;;
62479;SDS011;48526;48.846;2.322;2023-10-19T16:53:48;3.25;;;3.00;;
62479;SDS011;48526;48.846;2.322;2023-10-19T16:56:15;4.00;;;3.75;;
62479;SDS011;48526;48.846;2.322;2023-10-19T16:58:40;6.00;;;3.33;;
62479;SDS011;48526;48.846;2.322;2023-10-19T17:01:05;9.25;;;7.25;;
62479;SDS011;48526;48.846;2.322;2023-10-19T17:03:34;4.75;;;3.75;;
62479;SDS011;48526;48.846;2.322;2023-10-19T17:06:00;2.00;;;2.00;;
62479;SDS011;48526;48.846;2.322;2023-10-19T17:08:26;4.00;;;4.00;;
62479;SDS011;48526;48.846;2.322;2023-10-19T17:10:51;3.00;;;2.00;;
62479;SDS011;48526;48.846;2.322;2023-10-19T17:13:17;3.50;;;2.25;;
62479;SDS011;48526;48.846;2.322;2023-10-19T17:15:43;4.67;;;3.67;;
62479;SDS011;48526;48.846;2.322;2023-10-19T17:18:08;2.67;;;2.67;;
62479;SDS011;48526;48.846;2.322;2023-10-19T17:20:34;3.00;;;2.00;;
62479;SDS011;48526;48.846;2.322;2023-10-19T17:22:59;3.00;;;3.00;;
62479;SDS011;48526;48.846;2.322;2023-10-19T17:25:24;5.33;;;4.00;;
62479;SDS011;48526;48.846;2.322;2023-10-19T17:27:49;5.33;;;4.00;;
62479;SDS011;48526;48.846;2.322;2023-10-19T17:30:16;3.00;;;3.00;;
62479;SDS011;48526;48.846;2.322;2023-10-19T17:32:41;7.00;;;7.00;;
62479;SDS011;48526;48.846;2.322;2023-10-19T17:35:07;7.75;;;5.75;;
62479;SDS011;48526;48.846;2.322;2023-10-19T17:37:33;6.50;;;5.50;;
62479;SDS011;48526;48.846;2.322;2023-10-19T17:39:59;18.67;;;15.67;;
62479;SDS011;48526;48.846;2.322;2023-10-19T17:42:24;10.25;;;7.25;;
62479;SDS011;48526;48.846;2.322;2023-10-19T17:44:49;2.25;;;2.00;;
62479;SDS011;48526;48.846;2.322;2023-10-19T17:47:15;7.00;;;6.00;;
62479;SDS011;48526;48.846;2.322;2023-10-19T17:49:40;12.00;;;8.00;;
62479;SDS011;48526;48.846;2.322;2023-10-19T17:52:05;0.00;;;0.00;;
62479;SDS011;48526;48.846;2.322;2023-10-19T17:54:32;7.00;;;7.00;;
62479;SDS011;48526;48.846;2.322;2023-10-19T17:56:57;8.00;;;7.33;;
62479;SDS011;48526;48.846;2.322;2023-10-19T17:59:22;5.67;;;5.67;;
62479;SDS011;48526;48.846;2.322;2023-10-19T18:01:48;5.67;;;4.00;;
62479;SDS011;48526;48.846;2.322;2023-10-19T18:04:14;4.75;;;4.00;;
62479;SDS011;48526;48.846;2.322;2023-10-19T18:06:42;6.00;;;5.00;;
62479;SDS011;48526;48.846;2.322;2023-10-19T18:09:07;4.67;;;4.67;;
62479;SDS011;48526;48.846;2.322;2023-10-19T18:11:33;4.25;;;3.00;;
62479;SDS011;48526;48.846;2.322;2023-10-19T18:13:58;4.00;;;4.00;;
62479;SDS011;48526;48.846;2.322;2023-10-19T18:16:23;5.00;;;4.00;;
62479;SDS011;48526;48.846;2.322;2023-10-19T18:18:49;4.00;;;4.00;;
62479;SDS011;48526;48.846;2.322;2023-10-19T18:21:15;6.00;;;4.25;;
62479;SDS011;48526;48.846;2.322;2023-10-19T18:23:43;9.25;;;7.00;;
62479;SDS011;48526;48.846;2.322;2023-10-19T18:26:14;5.00;;;4.00;;
62479;SDS011;48526;48.846;2.322;2023-10-19T18:28:45;5.00;;;4.25;;
62479;SDS011;48526;48.846;2.322;2023-10-19T18:31:12;4.75;;;4.00;;
62479;SDS011;48526;48.846;2.322;2023-10-19T18:33:38;3.50;;;3.50;;
62479;SDS011;48526;48.846;2.322;2023-10-19T18:36:03;5.75;;;5.50;;
62479;SDS011;48526;48.846;2.322;2023-10-19T18:38:35;4.75;;;4.00;;
62479;SDS011;48526;48.846;2.322;2023-10-19T18:41:02;10.25;;;9.25;;
62479;SDS011;48526;48.846;2.322;2023-10-19T18:43:29;6.25;;;6.00;;
62479;SDS011;48526;48.846;2.322;2023-10-19T18:45:55;5.25;;;3.50;;
62479;SDS011;48526;48.846;2.322;2023-10-19T18:48:20;7.50;;;5.75;;
62479;SDS011;48526;48.846;2.322;2023-10-19T18:50:55;6.25;;;5.00;;
62479;SDS011;48526;48.846;2.322;2023-10-19T18:53:20;5.25;;;5.00;;
62479;SDS011;48526;48.846;2.322;2023-10-19T18:55:49;6.33;;;5.67;;
62479;SDS011;48526;48.846;2.322;2023-10-19T18:58:14;4.25;;;3.00;;
62479;SDS011;48526;48.846;2.322;2023-10-19T19:00:39;5.67;;;5.67;;
62479;SDS011;48526;48.846;2.322;2023-10-19T19:03:04;5.67;;;4.00;;
62479;SDS011;48526;48.846;2.322;2023-10-19T19:05:31;7.00;;;5.00;;
62479;SDS011;48526;48.846;2.322;2023-10-19T19:08:02;6.00;;;6.00;;
62479;SDS011;48526;48.846;2.322;2023-10-19T19:10:28;5.25;;;5.25;;
62479;SDS011;48526;48.846;2.322;2023-10-19T19:12:54;7.75;;;6.50;;
62479;SDS011;48526;48.846;2.322;2023-10-19T19:15:20;10.25;;;10.25;;
62479;SDS011;48526;48.846;2.322;2023-10-19T19:17:45;6.00;;;5.00;;
62479;SDS011;48526;48.846;2.322;2023-10-19T19:20:12;8.50;;;7.75;;
62479;SDS011;48526;48.846;2.322;2023-10-19T19:22:38;12.50;;;11.25;;
62479;SDS011;48526;48.846;2.322;2023-10-19T19:25:05;6.75;;;6.75;;
62479;SDS011;48526;48.846;2.322;2023-10-19T19:27:30;11.75;;;10.50;;
62479;SDS011;48526;48.846;2.322;2023-10-19T19:29:55;6.67;;;6.33;;
62479;SDS011;48526;48.846;2.322;2023-10-19T19:32:20;6.33;;;6.33;;
62479;SDS011;48526;48.846;2.322;2023-10-19T19:34:46;8.00;;;7.00;;
62479;SDS011;48526;48.846;2.322;2023-10-19T19:37:11;7.33;;;7.33;;
62479;SDS011;48526;48.846;2.322;2023-10-19T19:39:38;6.25;;;5.00;;
62479;SDS011;48526;48.846;2.322;2023-10-19T19:42:03;9.00;;;7.25;;
62479;SDS011;48526;48.846;2.322;2023-10-19T19:44:29;12.50;;;11.00;;
62479;SDS011;48526;48.846;2.322;2023-10-19T19:46:54;8.67;;;8.00;;
62479;SDS011;48526;48.846;2.322;2023-10-19T19:49:19;8.33;;;8.00;;
62479;SDS011;48526;48.846;2.322;2023-10-19T19:51:44;23.00;;;15.00;;
62479;SDS011;48526;48.846;2.322;2023-10-19T19:54:10;14.67;;;13.00;;